sensor_id;sensor_type;location;lat;lon;timestamp;P1;durP1;ratioP1;P2;durP2;ratioP2
13897;SDS011;7019;50.766;4.474;2023-04-03T00:00:37;15.30;;;10.43;;
13897;SDS011;7019;50.766;4.474;2023-04-03T00:03:04;15.43;;;11.23;;
13897;SDS011;7019;50.766;4.474;2023-04-03T00:05:33;18.77;;;12.03;;
13897;SDS011;7019;50.766;4.474;2023-04-03T00:08:00;14.13;;;10.60;;
13897;SDS011;7019;50.766;4.474;2023-04-03T00:10:29;12.70;;;10.37;;
13897;SDS011;7019;50.766;4.474;2023-04-03T00:12:56;18.43;;;10.93;;
13897;SDS011;7019;50.766;4.474;2023-04-03T00:15:23;16.57;;;11.37;;
13897;SDS011;7019;50.766;4.474;2023-04-03T00:17:51;15.43;;;11.37;;
13897;SDS011;7019;50.766;4.474;2023-04-03T00:20:18;16.03;;;12.30;;
13897;SDS011;7019;50.766;4.474;2023-04-03T00:22:46;18.33;;;11.50;;
13897;SDS011;7019;50.766;4.474;2023-04-03T00:25:13;16.00;;;11.17;;
13897;SDS011;7019;50.766;4.474;2023-04-03T00:27:41;18.47;;;11.57;;
13897;SDS011;7019;50.766;4.474;2023-04-03T00:30:08;16.10;;;11.07;;
13897;SDS011;7019;50.766;4.474;2023-04-03T00:32:39;14.87;;;10.57;;
13897;SDS011;7019;50.766;4.474;2023-04-03T00:35:06;11.20;;;9.83;;
13897;SDS011;7019;50.766;4.474;2023-04-03T00:37:34;14.37;;;10.33;;
13897;SDS011;7019;50.766;4.474;2023-04-03T00:40:03;15.10;;;9.60;;
13897;SDS011;7019;50.766;4.474;2023-04-03T00:42:31;15.90;;;11.33;;
13897;SDS011;7019;50.766;4.474;2023-04-03T00:47:50;15.30;;;11.23;;
13897;SDS011;7019;50.766;4.474;2023-04-03T00:50:17;18.20;;;10.60;;
13897;SDS011;7019;50.766;4.474;2023-04-03T00:52:44;15.07;;;10.80;;
13897;SDS011;7019;50.766;4.474;2023-04-03T00:55:15;14.50;;;9.47;;
13897;SDS011;7019;50.766;4.474;2023-04-03T00:57:43;12.97;;;8.70;;
13897;SDS011;7019;50.766;4.474;2023-04-03T01:00:12;9.47;;;8.00;;
13897;SDS011;7019;50.766;4.474;2023-04-03T01:02:42;10.97;;;7.50;;
13897;SDS011;7019;50.766;4.474;2023-04-03T01:05:10;10.17;;;8.00;;
13897;SDS011;7019;50.766;4.474;2023-04-03T01:07:37;11.00;;;7.70;;
13897;SDS011;7019;50.766;4.474;2023-04-03T01:10:07;11.50;;;7.90;;
13897;SDS011;7019;50.766;4.474;2023-04-03T01:12:37;8.40;;;7.50;;
13897;SDS011;7019;50.766;4.474;2023-04-03T01:15:06;14.00;;;9.10;;
13897;SDS011;7019;50.766;4.474;2023-04-03T01:17:35;12.43;;;7.37;;
13897;SDS011;7019;50.766;4.474;2023-04-03T01:23:30;13.80;;;8.00;;
13897;SDS011;7019;50.766;4.474;2023-04-03T01:26:05;8.83;;;7.00;;
13897;SDS011;7019;50.766;4.474;2023-04-03T01:28:35;9.07;;;6.53;;
13897;SDS011;7019;50.766;4.474;2023-04-03T01:31:05;8.63;;;7.37;;
13897;SDS011;7019;50.766;4.474;2023-04-03T01:33:41;14.27;;;7.17;;
13897;SDS011;7019;50.766;4.474;2023-04-03T01:36:10;10.03;;;7.60;;
13897;SDS011;7019;50.766;4.474;2023-04-03T01:38:40;11.53;;;7.07;;
13897;SDS011;7019;50.766;4.474;2023-04-03T01:41:07;11.73;;;8.37;;
13897;SDS011;7019;50.766;4.474;2023-04-03T01:43:34;11.47;;;7.93;;
13897;SDS011;7019;50.766;4.474;2023-04-03T01:46:01;12.10;;;9.40;;
13897;SDS011;7019;50.766;4.474;2023-04-03T01:48:28;12.70;;;8.27;;
13897;SDS011;7019;50.766;4.474;2023-04-03T01:50:57;10.07;;;8.43;;
13897;SDS011;7019;50.766;4.474;2023-04-03T01:53:24;9.13;;;7.20;;
13897;SDS011;7019;50.766;4.474;2023-04-03T01:55:51;8.57;;;7.37;;
13897;SDS011;7019;50.766;4.474;2023-04-03T01:58:18;10.13;;;7.77;;
13897;SDS011;7019;50.766;4.474;2023-04-03T02:00:45;12.10;;;7.33;;
13897;SDS011;7019;50.766;4.474;2023-04-03T02:03:13;9.73;;;7.20;;
13897;SDS011;7019;50.766;4.474;2023-04-03T02:05:40;10.43;;;7.47;;
13897;SDS011;7019;50.766;4.474;2023-04-03T02:08:08;11.17;;;7.70;;
13897;SDS011;7019;50.766;4.474;2023-04-03T02:10:35;12.50;;;8.17;;
13897;SDS011;7019;50.766;4.474;2023-04-03T02:13:02;9.77;;;7.80;;
13897;SDS011;7019;50.766;4.474;2023-04-03T02:15:30;14.70;;;8.10;;
13897;SDS011;7019;50.766;4.474;2023-04-03T02:17:57;13.60;;;8.93;;
13897;SDS011;7019;50.766;4.474;2023-04-03T02:20:24;11.27;;;8.00;;
13897;SDS011;7019;50.766;4.474;2023-04-03T02:22:51;10.60;;;8.17;;
13897;SDS011;7019;50.766;4.474;2023-04-03T02:25:19;12.60;;;9.27;;
13897;SDS011;7019;50.766;4.474;2023-04-03T02:27:47;11.40;;;9.20;;
13897;SDS011;7019;50.766;4.474;2023-04-03T02:30:14;14.70;;;9.07;;
13897;SDS011;7019;50.766;4.474;2023-04-03T02:32:41;12.17;;;8.27;;
13897;SDS011;7019;50.766;4.474;2023-04-03T02:35:09;11.27;;;8.63;;
13897;SDS011;7019;50.766;4.474;2023-04-03T02:37:36;14.43;;;8.40;;
13897;SDS011;7019;50.766;4.474;2023-04-03T02:40:04;10.87;;;8.47;;
13897;SDS011;7019;50.766;4.474;2023-04-03T02:42:33;13.37;;;8.47;;
13897;SDS011;7019;50.766;4.474;2023-04-03T02:45:00;9.30;;;8.00;;
13897;SDS011;7019;50.766;4.474;2023-04-03T02:47:27;10.60;;;7.50;;
13897;SDS011;7019;50.766;4.474;2023-04-03T02:49:54;10.80;;;8.23;;
13897;SDS011;7019;50.766;4.474;2023-04-03T02:52:22;14.10;;;8.33;;
13897;SDS011;7019;50.766;4.474;2023-04-03T02:54:49;11.87;;;8.27;;
13897;SDS011;7019;50.766;4.474;2023-04-03T02:57:16;13.23;;;8.73;;
13897;SDS011;7019;50.766;4.474;2023-04-03T02:59:46;13.37;;;9.03;;
13897;SDS011;7019;50.766;4.474;2023-04-03T03:02:13;10.00;;;8.87;;
13897;SDS011;7019;50.766;4.474;2023-04-03T03:04:40;14.13;;;9.80;;
13897;SDS011;7019;50.766;4.474;2023-04-03T03:07:07;15.60;;;10.33;;
13897;SDS011;7019;50.766;4.474;2023-04-03T03:09:34;13.77;;;9.60;;
13897;SDS011;7019;50.766;4.474;2023-04-03T03:12:01;12.80;;;9.33;;
13897;SDS011;7019;50.766;4.474;2023-04-03T03:14:29;13.40;;;9.30;;
13897;SDS011;7019;50.766;4.474;2023-04-03T03:16:57;14.33;;;10.63;;
13897;SDS011;7019;50.766;4.474;2023-04-03T03:19:24;15.50;;;10.37;;
13897;SDS011;7019;50.766;4.474;2023-04-03T03:21:51;15.20;;;10.47;;
13897;SDS011;7019;50.766;4.474;2023-04-03T03:24:18;15.77;;;11.07;;
13897;SDS011;7019;50.766;4.474;2023-04-03T03:26:45;16.03;;;11.10;;
13897;SDS011;7019;50.766;4.474;2023-04-03T03:29:12;16.73;;;11.23;;
13897;SDS011;7019;50.766;4.474;2023-04-03T03:31:39;15.60;;;12.00;;
13897;SDS011;7019;50.766;4.474;2023-04-03T03:34:08;20.87;;;13.03;;
13897;SDS011;7019;50.766;4.474;2023-04-03T03:36:35;16.90;;;11.43;;
13897;SDS011;7019;50.766;4.474;2023-04-03T03:39:02;20.73;;;13.13;;
13897;SDS011;7019;50.766;4.474;2023-04-03T03:41:29;16.50;;;11.30;;
13897;SDS011;7019;50.766;4.474;2023-04-03T03:43:56;17.40;;;12.63;;
13897;SDS011;7019;50.766;4.474;2023-04-03T03:46:24;17.27;;;12.77;;
13897;SDS011;7019;50.766;4.474;2023-04-03T03:48:51;14.47;;;11.10;;
13897;SDS011;7019;50.766;4.474;2023-04-03T03:51:19;16.53;;;11.53;;
13897;SDS011;7019;50.766;4.474;2023-04-03T03:53:46;17.63;;;12.00;;
13897;SDS011;7019;50.766;4.474;2023-04-03T03:56:13;16.47;;;11.33;;
13897;SDS011;7019;50.766;4.474;2023-04-03T03:58:40;16.40;;;12.27;;
13897;SDS011;7019;50.766;4.474;2023-04-03T04:01:07;18.50;;;12.97;;
13897;SDS011;7019;50.766;4.474;2023-04-03T04:03:34;21.60;;;12.77;;
13897;SDS011;7019;50.766;4.474;2023-04-03T04:06:02;17.70;;;12.60;;
13897;SDS011;7019;50.766;4.474;2023-04-03T04:08:31;20.63;;;13.43;;
13897;SDS011;7019;50.766;4.474;2023-04-03T04:10:58;18.13;;;13.43;;
13897;SDS011;7019;50.766;4.474;2023-04-03T04:13:25;19.03;;;13.47;;
13897;SDS011;7019;50.766;4.474;2023-04-03T04:15:52;20.90;;;13.17;;
13897;SDS011;7019;50.766;4.474;2023-04-03T04:18:19;17.70;;;12.53;;
13897;SDS011;7019;50.766;4.474;2023-04-03T04:20:47;17.07;;;13.20;;
13897;SDS011;7019;50.766;4.474;2023-04-03T04:23:15;18.53;;;13.83;;
13897;SDS011;7019;50.766;4.474;2023-04-03T04:25:45;16.47;;;12.47;;
13897;SDS011;7019;50.766;4.474;2023-04-03T04:28:12;20.20;;;13.97;;
13897;SDS011;7019;50.766;4.474;2023-04-03T04:30:39;17.20;;;13.73;;
13897;SDS011;7019;50.766;4.474;2023-04-03T04:33:07;19.43;;;13.87;;
13897;SDS011;7019;50.766;4.474;2023-04-03T04:35:35;17.63;;;13.07;;
13897;SDS011;7019;50.766;4.474;2023-04-03T04:38:02;19.60;;;13.73;;
13897;SDS011;7019;50.766;4.474;2023-04-03T04:40:29;19.50;;;13.30;;
13897;SDS011;7019;50.766;4.474;2023-04-03T04:42:58;18.93;;;13.67;;
13897;SDS011;7019;50.766;4.474;2023-04-03T04:45:25;21.10;;;13.83;;
13897;SDS011;7019;50.766;4.474;2023-04-03T04:47:54;20.80;;;13.40;;
13897;SDS011;7019;50.766;4.474;2023-04-03T04:50:21;16.43;;;12.30;;
13897;SDS011;7019;50.766;4.474;2023-04-03T04:52:48;17.63;;;13.70;;
13897;SDS011;7019;50.766;4.474;2023-04-03T04:55:15;18.63;;;13.53;;
13897;SDS011;7019;50.766;4.474;2023-04-03T04:57:43;26.10;;;14.27;;
13897;SDS011;7019;50.766;4.474;2023-04-03T05:00:12;20.37;;;12.67;;
13897;SDS011;7019;50.766;4.474;2023-04-03T05:02:40;20.10;;;13.67;;
13897;SDS011;7019;50.766;4.474;2023-04-03T05:05:08;19.23;;;13.77;;
13897;SDS011;7019;50.766;4.474;2023-04-03T05:07:35;18.27;;;13.50;;
13897;SDS011;7019;50.766;4.474;2023-04-03T05:10:02;26.03;;;13.47;;
13897;SDS011;7019;50.766;4.474;2023-04-03T05:12:30;18.57;;;13.50;;
13897;SDS011;7019;50.766;4.474;2023-04-03T05:14:58;21.27;;;14.47;;
13897;SDS011;7019;50.766;4.474;2023-04-03T05:17:26;27.40;;;13.73;;
13897;SDS011;7019;50.766;4.474;2023-04-03T05:19:53;18.47;;;13.27;;
13897;SDS011;7019;50.766;4.474;2023-04-03T05:22:20;18.27;;;12.87;;
13897;SDS011;7019;50.766;4.474;2023-04-03T05:24:47;17.93;;;12.70;;
13897;SDS011;7019;50.766;4.474;2023-04-03T05:27:14;17.73;;;13.10;;
13897;SDS011;7019;50.766;4.474;2023-04-03T05:29:42;17.70;;;12.97;;
13897;SDS011;7019;50.766;4.474;2023-04-03T05:32:09;22.27;;;14.77;;
13897;SDS011;7019;50.766;4.474;2023-04-03T05:34:37;21.50;;;13.57;;
13897;SDS011;7019;50.766;4.474;2023-04-03T05:37:05;22.60;;;14.63;;
13897;SDS011;7019;50.766;4.474;2023-04-03T05:39:32;21.87;;;14.00;;
13897;SDS011;7019;50.766;4.474;2023-04-03T05:41:59;20.80;;;15.60;;
13897;SDS011;7019;50.766;4.474;2023-04-03T05:44:26;26.70;;;15.40;;
13897;SDS011;7019;50.766;4.474;2023-04-03T05:46:53;19.80;;;14.37;;
13897;SDS011;7019;50.766;4.474;2023-04-03T05:49:20;23.00;;;14.80;;
13897;SDS011;7019;50.766;4.474;2023-04-03T05:51:49;22.90;;;15.67;;
13897;SDS011;7019;50.766;4.474;2023-04-03T05:54:17;24.30;;;16.37;;
13897;SDS011;7019;50.766;4.474;2023-04-03T05:56:48;20.93;;;14.50;;
13897;SDS011;7019;50.766;4.474;2023-04-03T05:59:15;22.03;;;14.77;;
13897;SDS011;7019;50.766;4.474;2023-04-03T06:01:42;18.93;;;13.43;;
13897;SDS011;7019;50.766;4.474;2023-04-03T06:04:09;17.53;;;13.17;;
13897;SDS011;7019;50.766;4.474;2023-04-03T06:06:45;21.37;;;14.70;;
13897;SDS011;7019;50.766;4.474;2023-04-03T06:09:14;18.50;;;14.03;;
13897;SDS011;7019;50.766;4.474;2023-04-03T06:11:42;18.43;;;13.77;;
13897;SDS011;7019;50.766;4.474;2023-04-03T06:14:09;20.23;;;15.23;;
13897;SDS011;7019;50.766;4.474;2023-04-03T06:16:37;19.57;;;14.50;;
13897;SDS011;7019;50.766;4.474;2023-04-03T06:19:04;23.37;;;14.10;;
13897;SDS011;7019;50.766;4.474;2023-04-03T06:21:32;20.90;;;15.40;;
13897;SDS011;7019;50.766;4.474;2023-04-03T06:23:59;23.97;;;17.27;;
13897;SDS011;7019;50.766;4.474;2023-04-03T06:26:28;22.80;;;16.60;;
13897;SDS011;7019;50.766;4.474;2023-04-03T06:28:55;27.60;;;17.97;;
13897;SDS011;7019;50.766;4.474;2023-04-03T06:31:22;24.57;;;17.17;;
13897;SDS011;7019;50.766;4.474;2023-04-03T06:33:49;20.57;;;15.63;;
13897;SDS011;7019;50.766;4.474;2023-04-03T06:36:17;22.63;;;15.50;;
13897;SDS011;7019;50.766;4.474;2023-04-03T06:38:46;17.97;;;14.53;;
13897;SDS011;7019;50.766;4.474;2023-04-03T06:41:14;20.37;;;13.50;;
13897;SDS011;7019;50.766;4.474;2023-04-03T06:43:43;18.63;;;13.60;;
13897;SDS011;7019;50.766;4.474;2023-04-03T06:46:13;17.23;;;13.30;;
13897;SDS011;7019;50.766;4.474;2023-04-03T06:48:42;17.17;;;12.87;;
13897;SDS011;7019;50.766;4.474;2023-04-03T06:51:17;16.50;;;12.03;;
13897;SDS011;7019;50.766;4.474;2023-04-03T06:53:46;13.33;;;10.20;;
13897;SDS011;7019;50.766;4.474;2023-04-03T06:56:13;10.70;;;8.50;;
13897;SDS011;7019;50.766;4.474;2023-04-03T06:58:40;13.60;;;9.53;;
13897;SDS011;7019;50.766;4.474;2023-04-03T07:01:09;13.67;;;9.33;;
13897;SDS011;7019;50.766;4.474;2023-04-03T07:03:37;16.00;;;10.33;;
13897;SDS011;7019;50.766;4.474;2023-04-03T07:06:05;10.53;;;8.87;;
13897;SDS011;7019;50.766;4.474;2023-04-03T07:08:33;12.27;;;9.70;;
13897;SDS011;7019;50.766;4.474;2023-04-03T07:11:00;10.83;;;8.53;;
13897;SDS011;7019;50.766;4.474;2023-04-03T07:13:27;12.13;;;8.33;;
13897;SDS011;7019;50.766;4.474;2023-04-03T07:15:55;9.33;;;7.20;;
13897;SDS011;7019;50.766;4.474;2023-04-03T07:18:23;10.07;;;7.70;;
13897;SDS011;7019;50.766;4.474;2023-04-03T07:20:51;13.20;;;7.67;;
13897;SDS011;7019;50.766;4.474;2023-04-03T07:23:18;10.23;;;7.73;;
13897;SDS011;7019;50.766;4.474;2023-04-03T07:25:45;12.20;;;7.70;;
13897;SDS011;7019;50.766;4.474;2023-04-03T07:28:14;9.90;;;6.77;;
13897;SDS011;7019;50.766;4.474;2023-04-03T07:30:42;8.77;;;6.93;;
13897;SDS011;7019;50.766;4.474;2023-04-03T07:33:10;8.63;;;6.60;;
13897;SDS011;7019;50.766;4.474;2023-04-03T07:35:39;7.90;;;5.87;;
13897;SDS011;7019;50.766;4.474;2023-04-03T07:38:07;10.30;;;7.00;;
13897;SDS011;7019;50.766;4.474;2023-04-03T07:40:34;7.10;;;6.40;;
13897;SDS011;7019;50.766;4.474;2023-04-03T07:43:01;7.00;;;5.53;;
13897;SDS011;7019;50.766;4.474;2023-04-03T07:45:29;9.20;;;6.27;;
13897;SDS011;7019;50.766;4.474;2023-04-03T07:47:56;8.63;;;6.80;;
13897;SDS011;7019;50.766;4.474;2023-04-03T07:50:23;10.40;;;6.20;;
13897;SDS011;7019;50.766;4.474;2023-04-03T07:52:52;8.97;;;6.50;;
13897;SDS011;7019;50.766;4.474;2023-04-03T07:55:22;6.13;;;5.33;;
13897;SDS011;7019;50.766;4.474;2023-04-03T07:57:49;7.83;;;5.13;;
13897;SDS011;7019;50.766;4.474;2023-04-03T08:00:17;7.80;;;5.60;;
13897;SDS011;7019;50.766;4.474;2023-04-03T08:02:44;6.93;;;5.27;;
13897;SDS011;7019;50.766;4.474;2023-04-03T08:05:15;8.60;;;5.77;;
13897;SDS011;7019;50.766;4.474;2023-04-03T08:07:42;7.43;;;5.40;;
13897;SDS011;7019;50.766;4.474;2023-04-03T08:10:11;7.37;;;5.13;;
13897;SDS011;7019;50.766;4.474;2023-04-03T08:12:38;6.60;;;5.20;;
13897;SDS011;7019;50.766;4.474;2023-04-03T08:15:06;6.23;;;4.90;;
13897;SDS011;7019;50.766;4.474;2023-04-03T08:17:34;9.60;;;5.23;;
13897;SDS011;7019;50.766;4.474;2023-04-03T08:20:02;8.63;;;5.40;;
13897;SDS011;7019;50.766;4.474;2023-04-03T08:22:31;7.93;;;5.20;;
13897;SDS011;7019;50.766;4.474;2023-04-03T08:24:58;10.37;;;5.90;;
13897;SDS011;7019;50.766;4.474;2023-04-03T08:27:29;7.97;;;4.77;;
13897;SDS011;7019;50.766;4.474;2023-04-03T08:29:56;7.53;;;5.67;;
13897;SDS011;7019;50.766;4.474;2023-04-03T08:32:23;6.80;;;5.23;;
13897;SDS011;7019;50.766;4.474;2023-04-03T08:34:50;5.47;;;4.90;;
13897;SDS011;7019;50.766;4.474;2023-04-03T08:37:17;6.93;;;5.20;;
13897;SDS011;7019;50.766;4.474;2023-04-03T08:39:45;9.27;;;5.50;;
13897;SDS011;7019;50.766;4.474;2023-04-03T08:42:14;5.77;;;5.17;;
13897;SDS011;7019;50.766;4.474;2023-04-03T08:44:50;6.50;;;4.77;;
13897;SDS011;7019;50.766;4.474;2023-04-03T08:47:24;9.10;;;4.83;;
13897;SDS011;7019;50.766;4.474;2023-04-03T08:49:56;6.47;;;4.40;;
13897;SDS011;7019;50.766;4.474;2023-04-03T08:52:27;4.90;;;3.77;;
13897;SDS011;7019;50.766;4.474;2023-04-03T08:55:00;5.33;;;4.17;;
13897;SDS011;7019;50.766;4.474;2023-04-03T08:57:30;7.10;;;3.30;;
13897;SDS011;7019;50.766;4.474;2023-04-03T09:00:04;7.73;;;4.23;;
13897;SDS011;7019;50.766;4.474;2023-04-03T09:02:34;8.30;;;3.23;;
13897;SDS011;7019;50.766;4.474;2023-04-03T09:05:09;6.77;;;3.30;;
13897;SDS011;7019;50.766;4.474;2023-04-03T09:07:44;5.87;;;3.07;;
13897;SDS011;7019;50.766;4.474;2023-04-03T09:10:14;4.53;;;2.90;;
13897;SDS011;7019;50.766;4.474;2023-04-03T09:12:46;5.57;;;2.97;;
13897;SDS011;7019;50.766;4.474;2023-04-03T09:15:19;3.37;;;2.40;;
13897;SDS011;7019;50.766;4.474;2023-04-03T09:17:51;4.97;;;2.60;;
13897;SDS011;7019;50.766;4.474;2023-04-03T09:20:27;3.90;;;2.17;;
13897;SDS011;7019;50.766;4.474;2023-04-03T09:23:08;5.47;;;2.30;;
13897;SDS011;7019;50.766;4.474;2023-04-03T09:25:43;4.23;;;2.23;;
13897;SDS011;7019;50.766;4.474;2023-04-03T09:28:10;4.17;;;2.23;;
13897;SDS011;7019;50.766;4.474;2023-04-03T09:30:38;3.90;;;2.23;;
13897;SDS011;7019;50.766;4.474;2023-04-03T09:33:06;1.97;;;1.50;;
13897;SDS011;7019;50.766;4.474;2023-04-03T09:35:35;3.63;;;1.73;;
13897;SDS011;7019;50.766;4.474;2023-04-03T09:38:14;3.83;;;1.67;;
13897;SDS011;7019;50.766;4.474;2023-04-03T09:40:44;3.23;;;1.73;;
13897;SDS011;7019;50.766;4.474;2023-04-03T09:43:23;5.60;;;2.20;;
13897;SDS011;7019;50.766;4.474;2023-04-03T09:45:53;3.20;;;1.80;;
13897;SDS011;7019;50.766;4.474;2023-04-03T09:48:22;5.40;;;2.03;;
13897;SDS011;7019;50.766;4.474;2023-04-03T09:50:55;4.40;;;1.83;;
13897;SDS011;7019;50.766;4.474;2023-04-03T09:53:26;8.43;;;1.93;;
13897;SDS011;7019;50.766;4.474;2023-04-03T09:56:00;3.87;;;1.93;;
13897;SDS011;7019;50.766;4.474;2023-04-03T09:58:30;3.70;;;1.50;;
13897;SDS011;7019;50.766;4.474;2023-04-03T10:01:00;3.83;;;2.00;;
13897;SDS011;7019;50.766;4.474;2023-04-03T10:03:30;2.90;;;1.70;;
13897;SDS011;7019;50.766;4.474;2023-04-03T10:05:59;8.10;;;1.80;;
13897;SDS011;7019;50.766;4.474;2023-04-03T10:08:28;7.27;;;2.00;;
13897;SDS011;7019;50.766;4.474;2023-04-03T10:11:07;6.13;;;2.13;;
13897;SDS011;7019;50.766;4.474;2023-04-03T10:13:36;5.50;;;1.80;;
13897;SDS011;7019;50.766;4.474;2023-04-03T10:16:18;5.10;;;1.97;;
13897;SDS011;7019;50.766;4.474;2023-04-03T10:18:50;3.30;;;1.80;;
13897;SDS011;7019;50.766;4.474;2023-04-03T10:21:31;5.07;;;1.97;;
13897;SDS011;7019;50.766;4.474;2023-04-03T10:24:07;2.93;;;1.73;;
13897;SDS011;7019;50.766;4.474;2023-04-03T10:26:39;4.10;;;1.93;;
13897;SDS011;7019;50.766;4.474;2023-04-03T10:29:16;1.90;;;1.50;;
13897;SDS011;7019;50.766;4.474;2023-04-03T10:31:54;3.47;;;1.97;;
13897;SDS011;7019;50.766;4.474;2023-04-03T10:34:28;2.13;;;1.83;;
13897;SDS011;7019;50.766;4.474;2023-04-03T10:37:00;3.33;;;2.23;;
13897;SDS011;7019;50.766;4.474;2023-04-03T10:39:37;3.43;;;1.73;;
13897;SDS011;7019;50.766;4.474;2023-04-03T10:42:13;3.63;;;1.90;;
13897;SDS011;7019;50.766;4.474;2023-04-03T10:44:52;4.83;;;1.90;;
13897;SDS011;7019;50.766;4.474;2023-04-03T10:47:34;4.53;;;1.97;;
13897;SDS011;7019;50.766;4.474;2023-04-03T10:50:19;3.57;;;2.23;;
13897;SDS011;7019;50.766;4.474;2023-04-03T10:52:56;3.53;;;2.17;;
13897;SDS011;7019;50.766;4.474;2023-04-03T10:55:30;4.23;;;1.80;;
13897;SDS011;7019;50.766;4.474;2023-04-03T10:58:02;3.93;;;1.83;;
13897;SDS011;7019;50.766;4.474;2023-04-03T11:00:33;3.90;;;1.60;;
13897;SDS011;7019;50.766;4.474;2023-04-03T11:03:07;3.80;;;1.53;;
13897;SDS011;7019;50.766;4.474;2023-04-03T11:05:41;3.50;;;1.20;;
13897;SDS011;7019;50.766;4.474;2023-04-03T11:08:11;3.57;;;1.47;;
13897;SDS011;7019;50.766;4.474;2023-04-03T11:10:46;2.10;;;1.07;;
13897;SDS011;7019;50.766;4.474;2023-04-03T11:13:17;3.53;;;1.90;;
13897;SDS011;7019;50.766;4.474;2023-04-03T11:15:49;4.17;;;1.70;;
13897;SDS011;7019;50.766;4.474;2023-04-03T11:18:20;3.73;;;1.40;;
13897;SDS011;7019;50.766;4.474;2023-04-03T11:20:53;3.20;;;1.50;;
13897;SDS011;7019;50.766;4.474;2023-04-03T11:23:29;4.33;;;1.37;;
13897;SDS011;7019;50.766;4.474;2023-04-03T11:26:07;6.50;;;2.07;;
13897;SDS011;7019;50.766;4.474;2023-04-03T11:28:37;4.27;;;2.03;;
13897;SDS011;7019;50.766;4.474;2023-04-03T11:31:08;2.97;;;1.67;;
13897;SDS011;7019;50.766;4.474;2023-04-03T11:33:55;3.37;;;1.77;;
13897;SDS011;7019;50.766;4.474;2023-04-03T11:36:32;3.60;;;2.17;;
13897;SDS011;7019;50.766;4.474;2023-04-03T11:39:07;3.10;;;1.67;;
13897;SDS011;7019;50.766;4.474;2023-04-03T11:41:43;2.30;;;1.47;;
13897;SDS011;7019;50.766;4.474;2023-04-03T11:44:25;1.93;;;1.43;;
13897;SDS011;7019;50.766;4.474;2023-04-03T11:46:59;4.23;;;1.60;;
13897;SDS011;7019;50.766;4.474;2023-04-03T11:58:24;3.10;;;1.30;;
13897;SDS011;7019;50.766;4.474;2023-04-03T12:00:56;3.47;;;1.50;;
13897;SDS011;7019;50.766;4.474;2023-04-03T12:12:58;2.43;;;1.30;;
13897;SDS011;7019;50.766;4.474;2023-04-03T12:18:32;4.10;;;1.67;;
13897;SDS011;7019;50.766;4.474;2023-04-03T12:21:10;3.20;;;1.40;;
13897;SDS011;7019;50.766;4.474;2023-04-03T12:26:27;3.83;;;1.30;;
13897;SDS011;7019;50.766;4.474;2023-04-03T12:28:58;4.70;;;1.60;;
13897;SDS011;7019;50.766;4.474;2023-04-03T12:31:32;4.17;;;1.73;;
13897;SDS011;7019;50.766;4.474;2023-04-03T12:34:14;4.43;;;1.73;;
13897;SDS011;7019;50.766;4.474;2023-04-03T12:36:55;4.83;;;1.80;;
13897;SDS011;7019;50.766;4.474;2023-04-03T12:39:41;5.70;;;2.07;;
13897;SDS011;7019;50.766;4.474;2023-04-03T12:42:23;2.53;;;1.37;;
13897;SDS011;7019;50.766;4.474;2023-04-03T12:45:01;2.63;;;1.20;;
13897;SDS011;7019;50.766;4.474;2023-04-03T12:47:33;4.27;;;1.30;;
13897;SDS011;7019;50.766;4.474;2023-04-03T12:50:03;3.00;;;1.50;;
13897;SDS011;7019;50.766;4.474;2023-04-03T12:52:43;2.77;;;1.30;;
13897;SDS011;7019;50.766;4.474;2023-04-03T12:55:14;3.07;;;1.40;;
13897;SDS011;7019;50.766;4.474;2023-04-03T12:57:43;1.70;;;0.90;;
13897;SDS011;7019;50.766;4.474;2023-04-03T13:00:28;2.53;;;0.90;;
13897;SDS011;7019;50.766;4.474;2023-04-03T13:02:58;5.27;;;1.43;;
13897;SDS011;7019;50.766;4.474;2023-04-03T13:05:26;1.90;;;0.80;;
13897;SDS011;7019;50.766;4.474;2023-04-03T13:07:56;1.70;;;0.90;;
13897;SDS011;7019;50.766;4.474;2023-04-03T13:10:27;1.93;;;1.13;;
13897;SDS011;7019;50.766;4.474;2023-04-03T13:12:56;2.00;;;1.23;;
13897;SDS011;7019;50.766;4.474;2023-04-03T13:15:26;3.13;;;1.10;;
13897;SDS011;7019;50.766;4.474;2023-04-03T13:17:55;1.63;;;0.90;;
13897;SDS011;7019;50.766;4.474;2023-04-03T13:20:25;2.53;;;1.00;;
13897;SDS011;7019;50.766;4.474;2023-04-03T13:22:54;2.57;;;0.80;;
13897;SDS011;7019;50.766;4.474;2023-04-03T13:25:26;4.77;;;0.90;;
13897;SDS011;7019;50.766;4.474;2023-04-03T13:27:58;2.50;;;1.07;;
13897;SDS011;7019;50.766;4.474;2023-04-03T13:30:28;1.00;;;0.90;;
13897;SDS011;7019;50.766;4.474;2023-04-03T13:32:56;1.43;;;0.67;;
13897;SDS011;7019;50.766;4.474;2023-04-03T13:35:28;4.17;;;1.10;;
13897;SDS011;7019;50.766;4.474;2023-04-03T13:38:00;1.87;;;0.70;;
13897;SDS011;7019;50.766;4.474;2023-04-03T13:40:30;2.03;;;0.63;;
13897;SDS011;7019;50.766;4.474;2023-04-03T13:43:00;4.87;;;0.50;;
13897;SDS011;7019;50.766;4.474;2023-04-03T13:45:29;1.63;;;0.70;;
13897;SDS011;7019;50.766;4.474;2023-04-03T13:48:14;2.40;;;1.10;;
13897;SDS011;7019;50.766;4.474;2023-04-03T13:50:51;3.37;;;1.20;;
13897;SDS011;7019;50.766;4.474;2023-04-03T13:53:22;2.40;;;1.00;;
13897;SDS011;7019;50.766;4.474;2023-04-03T13:56:04;2.77;;;1.07;;
13897;SDS011;7019;50.766;4.474;2023-04-03T13:58:35;3.87;;;0.90;;
13897;SDS011;7019;50.766;4.474;2023-04-03T14:01:08;2.53;;;1.17;;
13897;SDS011;7019;50.766;4.474;2023-04-03T14:03:43;3.00;;;1.33;;
13897;SDS011;7019;50.766;4.474;2023-04-03T14:06:14;2.60;;;1.37;;
13897;SDS011;7019;50.766;4.474;2023-04-03T14:08:42;2.97;;;1.00;;
13897;SDS011;7019;50.766;4.474;2023-04-03T14:11:14;3.27;;;1.20;;
13897;SDS011;7019;50.766;4.474;2023-04-03T14:13:44;2.77;;;1.00;;
13897;SDS011;7019;50.766;4.474;2023-04-03T14:16:13;1.63;;;1.00;;
13897;SDS011;7019;50.766;4.474;2023-04-03T14:18:42;3.67;;;1.00;;
13897;SDS011;7019;50.766;4.474;2023-04-03T14:21:10;1.27;;;0.80;;
13897;SDS011;7019;50.766;4.474;2023-04-03T14:23:38;4.13;;;1.13;;
13897;SDS011;7019;50.766;4.474;2023-04-03T14:26:08;2.53;;;1.10;;
13897;SDS011;7019;50.766;4.474;2023-04-03T14:28:38;2.33;;;1.00;;
13897;SDS011;7019;50.766;4.474;2023-04-03T14:31:07;3.50;;;1.80;;
13897;SDS011;7019;50.766;4.474;2023-04-03T14:33:36;2.80;;;1.10;;
13897;SDS011;7019;50.766;4.474;2023-04-03T14:36:05;2.77;;;1.13;;
13897;SDS011;7019;50.766;4.474;2023-04-03T14:38:39;4.13;;;1.10;;
13897;SDS011;7019;50.766;4.474;2023-04-03T14:41:07;2.17;;;1.10;;
13897;SDS011;7019;50.766;4.474;2023-04-03T14:43:37;2.17;;;1.07;;
13897;SDS011;7019;50.766;4.474;2023-04-03T14:46:04;3.10;;;1.00;;
13897;SDS011;7019;50.766;4.474;2023-04-03T14:48:37;1.80;;;1.00;;
13897;SDS011;7019;50.766;4.474;2023-04-03T14:51:05;3.43;;;1.23;;
13897;SDS011;7019;50.766;4.474;2023-04-03T14:53:32;3.77;;;1.23;;
13897;SDS011;7019;50.766;4.474;2023-04-03T14:55:59;1.30;;;1.10;;
13897;SDS011;7019;50.766;4.474;2023-04-03T14:58:28;2.23;;;1.07;;
13897;SDS011;7019;50.766;4.474;2023-04-03T15:00:55;4.03;;;1.37;;
13897;SDS011;7019;50.766;4.474;2023-04-03T15:03:22;2.90;;;1.30;;
13897;SDS011;7019;50.766;4.474;2023-04-03T15:05:51;2.90;;;1.03;;
13897;SDS011;7019;50.766;4.474;2023-04-03T15:08:19;3.77;;;1.10;;
13897;SDS011;7019;50.766;4.474;2023-04-03T15:10:49;2.87;;;1.43;;
13897;SDS011;7019;50.766;4.474;2023-04-03T15:13:18;2.70;;;1.30;;
13897;SDS011;7019;50.766;4.474;2023-04-03T15:15:45;1.97;;;1.30;;
13897;SDS011;7019;50.766;4.474;2023-04-03T15:18:14;4.50;;;1.83;;
13897;SDS011;7019;50.766;4.474;2023-04-03T15:20:44;5.17;;;1.57;;
13897;SDS011;7019;50.766;4.474;2023-04-03T15:23:13;4.23;;;1.33;;
13897;SDS011;7019;50.766;4.474;2023-04-03T15:25:41;4.03;;;1.53;;
13897;SDS011;7019;50.766;4.474;2023-04-03T15:28:09;2.37;;;1.30;;
13897;SDS011;7019;50.766;4.474;2023-04-03T15:30:43;1.70;;;1.10;;
13897;SDS011;7019;50.766;4.474;2023-04-03T15:33:10;2.80;;;1.20;;
13897;SDS011;7019;50.766;4.474;2023-04-03T15:35:37;4.40;;;1.63;;